createdAt,value
2018-03-08T00:00:21.601Z,965.67
2018-03-08T00:01:21.494Z,965.73
2018-03-08T00:02:21.417Z,965.72
2018-03-08T00:03:21.325Z,965.75
2018-03-08T00:04:21.243Z,965.76
2018-03-08T00:05:21.159Z,965.82
2018-03-08T00:06:21.076Z,965.85
2018-03-08T00:07:20.979Z,965.86
2018-03-08T00:08:20.909Z,965.86
2018-03-08T00:09:21.546Z,965.88
2018-03-08T00:10:20.742Z,965.87
2018-03-08T00:11:20.654Z,965.83
2018-03-08T00:12:20.579Z,965.86
2018-03-08T00:13:20.491Z,965.89
2018-03-08T00:14:20.413Z,965.93
2018-03-08T00:15:20.316Z,965.91
2018-03-08T00:16:22.030Z,965.93
2018-03-08T00:17:20.161Z,965.95
2018-03-08T00:18:20.058Z,965.98
2018-03-08T00:19:19.999Z,966.00
2018-03-08T00:20:19.900Z,966.00
2018-03-08T00:21:19.830Z,966.02
2018-03-08T00:22:19.742Z,966.05
2018-03-08T00:23:19.667Z,966.00
2018-03-08T00:24:19.583Z,966.06
2018-03-08T00:25:19.494Z,966.05
2018-03-08T00:26:19.399Z,966.05
2018-03-08T00:27:20.048Z,966.04
2018-03-08T00:28:19.257Z,966.10
2018-03-08T00:29:20.053Z,966.07
2018-03-08T00:30:19.083Z,966.09
2018-03-08T00:31:18.978Z,966.07
2018-03-08T00:32:18.890Z,966.07
2018-03-08T00:33:18.827Z,966.10
2018-03-08T00:34:18.752Z,966.10
2018-03-08T00:35:19.548Z,966.11
2018-03-08T00:36:18.584Z,966.10
2018-03-08T00:37:18.486Z,966.06
2018-03-08T00:38:18.410Z,966.05
2018-03-08T00:39:20.049Z,966.02
2018-03-08T00:40:18.247Z,966.08
2018-03-08T00:41:18.150Z,966.07
2018-03-08T00:42:18.087Z,966.10
2018-03-08T00:43:17.977Z,966.12
2018-03-08T00:44:17.931Z,966.09
2018-03-08T00:45:17.819Z,966.09
2018-03-08T00:46:17.753Z,966.12
2018-03-08T00:47:17.658Z,966.07
2018-03-08T00:48:17.593Z,966.01
2018-03-08T00:49:17.501Z,966.02
2018-03-08T00:50:17.397Z,966.00
2018-03-08T00:51:17.337Z,966.02
2018-03-08T00:52:17.235Z,966.09
2018-03-08T00:53:17.159Z,966.13
2018-03-08T00:54:17.068Z,966.25
2018-03-08T00:55:17.008Z,966.20
2018-03-08T00:56:16.920Z,966.18
2018-03-08T00:57:16.805Z,966.18
2018-03-08T00:58:16.753Z,966.18
2018-03-08T00:59:16.643Z,966.18
2018-03-08T01:00:17.562Z,966.20
2018-03-08T01:01:16.473Z,966.21
2018-03-08T01:02:16.381Z,966.21
2018-03-08T01:03:17.027Z,966.17
2018-03-08T01:04:16.234Z,966.21
2018-03-08T01:05:16.167Z,966.22
2018-03-08T01:06:16.069Z,966.19
2018-03-08T01:07:15.979Z,966.20
2018-03-08T01:08:15.917Z,966.21
2018-03-08T01:09:15.817Z,966.17
2018-03-08T01:10:15.731Z,966.21
2018-03-08T01:11:15.717Z,966.18
2018-03-08T01:12:15.582Z,966.23
2018-03-08T01:13:15.499Z,966.22
2018-03-08T01:14:15.404Z,966.27
2018-03-08T01:15:15.304Z,966.31
2018-03-08T01:16:15.260Z,966.29
2018-03-08T01:17:15.132Z,966.29
2018-03-08T01:18:15.096Z,966.27
2018-03-08T01:19:14.964Z,966.26
2018-03-08T01:20:14.890Z,966.30
2018-03-08T01:21:14.837Z,966.27
2018-03-08T01:22:14.727Z,966.26
2018-03-08T01:23:14.664Z,966.30
2018-03-08T01:24:14.561Z,966.27
2018-03-08T01:25:14.473Z,966.30
2018-03-08T01:26:14.394Z,966.30
2018-03-08T01:27:14.340Z,966.29
2018-03-08T01:28:14.217Z,966.33
2018-03-08T01:29:14.118Z,966.31
2018-03-08T01:30:14.059Z,966.34
2018-03-08T01:31:13.996Z,966.37
2018-03-08T01:32:13.882Z,966.39
2018-03-08T01:33:13.783Z,966.38
2018-03-08T01:34:13.742Z,966.38
2018-03-08T01:35:13.644Z,966.38
2018-03-08T01:36:13.577Z,966.38
2018-03-08T01:37:13.450Z,966.41
2018-03-08T01:38:13.420Z,966.43
2018-03-08T01:39:13.330Z,966.39
2018-03-08T01:40:13.217Z,966.37
2018-03-08T01:41:13.137Z,966.33
2018-03-08T01:42:13.071Z,966.35
2018-03-08T01:43:12.970Z,966.38
2018-03-08T01:44:12.900Z,966.39
2018-03-08T01:45:12.811Z,966.44
2018-03-08T01:46:12.739Z,966.41
2018-03-08T01:47:12.668Z,966.39
2018-03-08T01:48:12.531Z,966.40
2018-03-08T01:49:13.060Z,966.43
2018-03-08T01:50:13.047Z,966.46
2018-03-08T01:51:12.279Z,966.47
2018-03-08T01:52:12.233Z,966.45
2018-03-08T01:53:12.141Z,966.45
2018-03-08T01:54:12.002Z,966.44
2018-03-08T01:55:11.925Z,966.49
2018-03-08T01:56:11.846Z,966.44
2018-03-08T01:57:11.752Z,966.45
2018-03-08T01:58:11.675Z,966.48
2018-03-08T01:59:11.587Z,966.48
2018-03-08T02:00:11.502Z,966.52
2018-03-08T02:01:11.420Z,966.50
2018-03-08T02:02:11.332Z,966.49
2018-03-08T02:03:11.247Z,966.46
2018-03-08T02:04:11.165Z,966.44
2018-03-08T02:05:11.083Z,966.49
2018-03-08T02:06:10.997Z,966.47
2018-03-08T02:07:10.912Z,966.44
2018-03-08T02:08:10.830Z,966.40
2018-03-08T02:09:10.745Z,966.46
2018-03-08T02:10:10.663Z,966.44
2018-03-08T02:11:10.578Z,966.46
2018-03-08T02:12:10.492Z,966.47
2018-03-08T02:13:10.419Z,966.46
2018-03-08T02:14:10.324Z,966.51
2018-03-08T02:15:10.253Z,966.53
2018-03-08T02:16:10.156Z,966.48
2018-03-08T02:17:10.075Z,966.53
2018-03-08T02:18:09.989Z,966.53
2018-03-08T02:19:09.903Z,966.55
2018-03-08T02:20:09.821Z,966.60
2018-03-08T02:21:09.735Z,966.65
2018-03-08T02:22:09.651Z,966.61
2018-03-08T02:23:09.572Z,966.62
2018-03-08T02:24:09.490Z,966.64
2018-03-08T02:25:09.398Z,966.65
2018-03-08T02:26:09.316Z,966.65
2018-03-08T02:27:09.236Z,966.66
2018-03-08T02:28:09.150Z,966.60
2018-03-08T02:29:09.063Z,966.57
2018-03-08T02:30:08.981Z,966.58
2018-03-08T02:31:08.897Z,966.56
2018-03-08T02:32:08.815Z,966.60
2018-03-08T02:33:08.752Z,966.62
2018-03-08T02:34:08.664Z,966.57
2018-03-08T02:35:08.564Z,966.58
2018-03-08T02:36:08.474Z,966.62
2018-03-08T02:37:08.392Z,966.64
2018-03-08T02:38:08.309Z,966.60
2018-03-08T02:39:08.222Z,966.67
2018-03-08T02:40:08.138Z,966.68
2018-03-08T02:41:08.074Z,966.72
2018-03-08T02:42:07.969Z,966.70
2018-03-08T02:43:07.887Z,966.71
2018-03-08T02:44:07.802Z,966.74
2018-03-08T02:45:07.717Z,966.74
2018-03-08T02:46:07.633Z,966.77
2018-03-08T02:47:07.548Z,966.77
2018-03-08T02:48:07.467Z,966.78
2018-03-08T02:49:07.379Z,966.82
2018-03-08T02:50:07.303Z,966.81
2018-03-08T02:51:07.213Z,966.85
2018-03-08T02:52:14.487Z,966.82
2018-03-08T02:54:10.962Z,966.85
2018-03-08T02:55:10.830Z,966.84
2018-03-08T02:57:14.765Z,966.90
2018-03-08T02:58:14.636Z,966.89
2018-03-08T02:59:14.544Z,966.87
2018-03-08T03:00:14.459Z,966.89
2018-03-08T03:01:14.377Z,966.88
2018-03-08T03:02:14.300Z,966.89
2018-03-08T03:03:14.206Z,966.87
2018-03-08T03:04:14.129Z,966.92
2018-03-08T03:05:14.039Z,966.94
2018-03-08T03:06:13.953Z,966.94
2018-03-08T03:07:13.870Z,966.93
2018-03-08T03:08:13.793Z,966.95
2018-03-08T03:09:13.703Z,966.95
2018-03-08T03:10:13.616Z,966.91
2018-03-08T03:11:13.533Z,966.94
2018-03-08T03:12:13.449Z,966.92
2018-03-08T03:13:13.361Z,966.92
2018-03-08T03:14:13.279Z,966.95
2018-03-08T03:15:13.196Z,966.91
2018-03-08T03:16:13.110Z,966.94
2018-03-08T03:17:13.031Z,966.92
2018-03-08T03:18:12.944Z,966.95
2018-03-08T03:19:12.859Z,966.96
2018-03-08T03:20:12.772Z,966.99
2018-03-08T03:21:12.690Z,966.98
2018-03-08T03:22:12.612Z,967.01
2018-03-08T03:23:12.522Z,967.03
2018-03-08T03:24:12.436Z,966.99
2018-03-08T03:25:12.352Z,967.01
2018-03-08T03:26:12.268Z,967.00
2018-03-08T03:27:12.188Z,967.02
2018-03-08T03:28:12.097Z,967.03
2018-03-08T03:29:12.020Z,967.01
2018-03-08T03:30:11.939Z,966.97
2018-03-08T03:31:11.851Z,967.06
2018-03-08T03:32:11.763Z,967.05
2018-03-08T03:33:11.682Z,967.04
2018-03-08T03:34:11.647Z,966.98
2018-03-08T03:35:11.511Z,967.05
2018-03-08T03:36:11.424Z,967.04
2018-03-08T03:37:11.342Z,967.06
2018-03-08T03:38:11.259Z,967.06
2018-03-08T03:39:11.172Z,967.07
2018-03-08T03:40:11.088Z,967.06
2018-03-08T03:41:11.003Z,967.10
2018-03-08T03:42:10.920Z,967.11
2018-03-08T03:43:10.838Z,967.12
2018-03-08T03:44:10.751Z,967.10
2018-03-08T03:45:10.672Z,967.13
2018-03-08T03:46:10.585Z,967.15
2018-03-08T03:47:10.501Z,967.10
2018-03-08T03:48:10.415Z,967.08
2018-03-08T03:49:10.331Z,967.09
2018-03-08T03:50:10.248Z,967.13
2018-03-08T03:51:10.164Z,967.12
2018-03-08T03:52:10.081Z,967.09
2018-03-08T03:53:09.994Z,967.12
2018-03-08T03:54:09.910Z,967.10
2018-03-08T03:55:09.842Z,967.10
2018-03-08T03:56:09.742Z,967.07
2018-03-08T03:57:09.658Z,967.05
2018-03-08T03:58:09.574Z,967.06
2018-03-08T03:59:09.491Z,967.12
2018-03-08T04:00:09.406Z,967.13
2018-03-08T04:01:09.326Z,967.15
2018-03-08T04:02:09.240Z,967.17
2018-03-08T04:03:09.152Z,967.14
2018-03-08T04:04:09.067Z,967.18
2018-03-08T04:05:09.005Z,967.17
2018-03-08T04:06:08.900Z,967.18
2018-03-08T04:07:08.817Z,967.20
2018-03-08T04:08:08.730Z,967.21
2018-03-08T04:09:08.649Z,967.24
2018-03-08T04:10:08.565Z,967.25
2018-03-08T04:11:08.482Z,967.26
2018-03-08T04:12:08.404Z,967.25
2018-03-08T04:13:08.311Z,967.27
2018-03-08T04:14:08.224Z,967.27
2018-03-08T04:15:08.144Z,967.33
2018-03-08T04:16:08.056Z,967.39
2018-03-08T04:17:07.974Z,967.40
2018-03-08T04:18:07.888Z,967.46
2018-03-08T04:19:07.808Z,967.45
2018-03-08T04:20:07.718Z,967.45
2018-03-08T04:21:07.639Z,967.44
2018-03-08T04:22:07.555Z,967.40
2018-03-08T04:23:07.470Z,967.47
2018-03-08T04:24:07.384Z,967.49
2018-03-08T04:25:07.300Z,967.43
2018-03-08T04:26:07.215Z,967.51
2018-03-08T04:27:07.137Z,967.52
2018-03-08T04:28:07.047Z,967.50
2018-03-08T04:29:06.961Z,967.53
2018-03-08T04:30:06.877Z,967.56
2018-03-08T04:31:06.793Z,967.57
2018-03-08T04:32:06.709Z,967.58
2018-03-08T04:33:06.624Z,967.57
2018-03-08T04:34:06.541Z,967.56
2018-03-08T04:35:06.457Z,967.51
2018-03-08T04:36:06.371Z,967.60
2018-03-08T04:37:06.288Z,967.57
2018-03-08T04:38:06.207Z,967.59
2018-03-08T04:39:06.118Z,967.62
2018-03-08T04:40:06.037Z,967.64
2018-03-08T04:41:05.951Z,967.65
2018-03-08T04:42:05.869Z,967.63
2018-03-08T04:43:05.785Z,967.66
2018-03-08T04:44:05.704Z,967.66
2018-03-08T04:45:05.613Z,967.72
2018-03-08T04:46:05.530Z,967.70
2018-03-08T04:47:05.446Z,967.76
2018-03-08T04:48:05.364Z,967.78
2018-03-08T04:49:05.297Z,967.80
2018-03-08T04:50:05.198Z,967.81
2018-03-08T04:51:05.111Z,967.79
2018-03-08T04:52:05.025Z,967.80
2018-03-08T04:53:04.940Z,967.81
2018-03-08T04:54:04.861Z,967.78
2018-03-08T04:55:04.778Z,967.79
2018-03-08T04:56:04.689Z,967.78
2018-03-08T04:57:04.604Z,967.77
2018-03-08T04:58:04.528Z,967.77
2018-03-08T04:59:04.441Z,967.78
2018-03-08T05:00:04.351Z,967.77
2018-03-08T05:01:04.271Z,967.79
2018-03-08T05:02:04.184Z,967.78
2018-03-08T05:03:04.105Z,967.80
2018-03-08T05:04:04.019Z,967.78
2018-03-08T05:05:03.933Z,967.77
2018-03-08T05:06:03.849Z,967.79
2018-03-08T05:07:03.772Z,967.77
2018-03-08T05:08:03.685Z,967.79
2018-03-08T05:09:03.597Z,967.80
2018-03-08T05:10:03.515Z,967.80
2018-03-08T05:11:03.430Z,967.80
2018-03-08T05:12:03.347Z,967.83
2018-03-08T05:13:03.261Z,967.83
2018-03-08T05:14:03.178Z,967.86
2018-03-08T05:15:03.094Z,967.81
2018-03-08T05:16:03.027Z,967.81
2018-03-08T05:17:02.926Z,967.87
2018-03-08T05:18:02.841Z,967.88
2018-03-08T05:19:02.758Z,967.88
2018-03-08T05:20:02.672Z,967.95
2018-03-08T05:21:02.589Z,967.94
2018-03-08T05:22:02.530Z,968.03
2018-03-08T05:23:02.427Z,968.01
2018-03-08T05:24:02.336Z,967.98
2018-03-08T05:25:02.256Z,967.99
2018-03-08T05:26:02.174Z,968.03
2018-03-08T05:27:02.090Z,968.07
2018-03-08T05:28:02.003Z,968.07
2018-03-08T05:29:01.921Z,968.05
2018-03-08T05:30:01.834Z,968.02
2018-03-08T05:31:01.751Z,968.03
2018-03-08T05:32:01.667Z,968.06
2018-03-08T05:33:01.584Z,968.08
2018-03-08T05:34:01.501Z,968.07
2018-03-08T05:35:01.420Z,968.08
2018-03-08T05:36:01.333Z,968.13
2018-03-08T05:37:01.249Z,968.10
2018-03-08T05:38:01.172Z,968.11
2018-03-08T05:39:01.081Z,968.10
2018-03-08T05:40:01.000Z,968.14
2018-03-08T05:41:00.913Z,968.13
2018-03-08T05:42:00.829Z,968.13
2018-03-08T05:43:00.747Z,968.16
2018-03-08T05:44:00.671Z,968.21
2018-03-08T05:45:00.577Z,968.19
2018-03-08T05:46:00.496Z,968.19
2018-03-08T05:47:00.465Z,968.22
2018-03-08T05:48:00.328Z,968.19
2018-03-08T05:49:00.243Z,968.20
2018-03-08T05:50:00.162Z,968.20
2018-03-08T05:51:00.078Z,968.24
2018-03-08T05:52:00.001Z,968.26
2018-03-08T05:52:59.908Z,968.33
2018-03-08T05:53:59.824Z,968.32
2018-03-08T05:54:59.741Z,968.24
2018-03-08T05:55:59.657Z,968.26
2018-03-08T05:56:59.576Z,968.32
2018-03-08T05:57:59.489Z,968.28
2018-03-08T05:58:59.401Z,968.32
2018-03-08T05:59:59.320Z,968.35
2018-03-08T06:00:59.239Z,968.42
2018-03-08T06:01:59.151Z,968.45
2018-03-08T06:02:59.072Z,968.49
2018-03-08T06:03:58.986Z,968.49
2018-03-08T06:04:58.899Z,968.54
2018-03-08T06:05:58.827Z,968.56
2018-03-08T06:06:58.734Z,968.55
2018-03-08T06:07:58.648Z,968.56
2018-03-08T06:08:58.567Z,968.54
2018-03-08T06:09:59.012Z,968.55
2018-03-08T06:10:58.400Z,968.55
2018-03-08T06:11:58.314Z,968.51
2018-03-08T06:12:58.230Z,968.55
2018-03-08T06:13:58.188Z,968.57
2018-03-08T06:14:58.081Z,968.55
2018-03-08T06:15:57.978Z,968.55
2018-03-08T06:16:57.895Z,968.60
2018-03-08T06:17:57.814Z,968.59
2018-03-08T06:18:57.726Z,968.60
2018-03-08T06:19:57.647Z,968.63
2018-03-08T06:20:57.562Z,968.64
2018-03-08T06:21:57.476Z,968.65
2018-03-08T06:22:57.393Z,968.66
2018-03-08T06:23:57.309Z,968.69
2018-03-08T06:24:57.225Z,968.69
2018-03-08T06:25:57.144Z,968.69
2018-03-08T06:26:57.061Z,968.71
2018-03-08T06:27:56.973Z,968.70
2018-03-08T06:28:56.887Z,968.72
2018-03-08T06:29:56.825Z,968.75
2018-03-08T06:30:56.744Z,968.74
2018-03-08T06:31:56.664Z,968.81
2018-03-08T06:32:56.552Z,968.82
2018-03-08T06:33:56.470Z,968.84
2018-03-08T06:34:56.388Z,968.85
2018-03-08T06:35:56.301Z,968.84
2018-03-08T06:36:56.215Z,968.85
2018-03-08T06:37:56.134Z,968.84
2018-03-08T06:38:56.051Z,968.87
2018-03-08T06:39:55.964Z,968.83
2018-03-08T06:40:55.880Z,968.82
2018-03-08T06:41:56.696Z,968.84
2018-03-08T06:42:55.719Z,968.89
2018-03-08T06:43:55.635Z,968.92
2018-03-08T06:44:55.549Z,968.90
2018-03-08T06:45:55.499Z,968.90
2018-03-08T06:46:55.381Z,968.94
2018-03-08T06:47:55.293Z,968.96
2018-03-08T06:48:55.207Z,968.86
2018-03-08T06:49:55.125Z,968.95
2018-03-08T06:50:55.043Z,968.96
2018-03-08T06:51:54.958Z,968.98
2018-03-08T06:52:54.871Z,969.00
2018-03-08T06:53:54.789Z,969.05
2018-03-08T06:54:54.744Z,969.03
2018-03-08T06:55:54.625Z,969.09
2018-03-08T06:56:54.547Z,969.07
2018-03-08T06:57:54.464Z,969.10
2018-03-08T06:58:54.372Z,969.13
2018-03-08T06:59:54.286Z,969.12
2018-03-08T07:00:54.206Z,969.12
2018-03-08T07:01:54.124Z,969.12
2018-03-08T07:02:54.069Z,969.15
2018-03-08T07:03:53.966Z,969.14
2018-03-08T07:04:53.873Z,969.16
2018-03-08T07:05:53.787Z,969.17
2018-03-08T07:06:53.707Z,969.19
2018-03-08T07:07:53.619Z,969.21
2018-03-08T07:08:53.535Z,969.21
2018-03-08T07:09:53.493Z,969.23
2018-03-08T07:10:53.387Z,969.18
2018-03-08T07:11:53.284Z,969.17
2018-03-08T07:12:53.208Z,969.17
2018-03-08T07:13:53.120Z,969.17
2018-03-08T07:14:53.038Z,969.18
2018-03-08T07:15:52.951Z,969.20
2018-03-08T07:16:52.866Z,969.20
2018-03-08T07:17:52.785Z,969.23
2018-03-08T07:18:52.714Z,969.23
2018-03-08T07:19:52.617Z,969.23
2018-03-08T07:20:52.537Z,969.29
2018-03-08T07:21:52.449Z,969.24
2018-03-08T07:22:52.365Z,969.27
2018-03-08T07:23:52.282Z,969.25
2018-03-08T07:24:52.198Z,969.28
2018-03-08T07:25:52.112Z,969.22
2018-03-08T07:26:52.033Z,969.21
2018-03-08T07:27:51.944Z,969.23
2018-03-08T07:28:51.862Z,969.22
2018-03-08T07:29:51.778Z,969.22
2018-03-08T07:30:51.697Z,969.22
2018-03-08T07:31:51.616Z,969.23
2018-03-08T07:32:51.531Z,969.22
2018-03-08T07:33:51.445Z,969.25
2018-03-08T07:34:51.360Z,969.29
2018-03-08T07:35:51.279Z,969.30
2018-03-08T07:36:51.195Z,969.29
2018-03-08T07:37:51.124Z,969.30
2018-03-08T07:38:51.033Z,969.30
2018-03-08T07:39:50.943Z,969.33
2018-03-08T07:40:50.863Z,969.32
2018-03-08T07:41:50.773Z,969.34
2018-03-08T07:42:50.697Z,969.37
2018-03-08T07:43:50.621Z,969.39
2018-03-08T07:44:50.524Z,969.40
2018-03-08T07:45:50.446Z,969.40
2018-03-08T07:46:50.358Z,969.37
2018-03-08T07:47:50.272Z,969.42
2018-03-08T07:48:50.189Z,969.42
2018-03-08T07:49:50.108Z,969.41
2018-03-08T07:50:50.023Z,969.42
2018-03-08T07:51:49.971Z,969.44
2018-03-08T07:52:49.855Z,969.47
2018-03-08T07:53:49.778Z,969.41
2018-03-08T07:54:49.689Z,969.44
2018-03-08T07:55:49.607Z,969.41
2018-03-08T07:56:49.522Z,969.38
2018-03-08T07:57:49.438Z,969.42
2018-03-08T07:58:49.355Z,969.46
2018-03-08T07:59:49.275Z,969.45
2018-03-08T08:00:49.191Z,969.42
2018-03-08T08:01:49.109Z,969.38
2018-03-08T08:02:49.024Z,969.41
2018-03-08T08:03:48.944Z,969.36
2018-03-08T08:04:48.858Z,969.37
2018-03-08T08:05:48.776Z,969.35
2018-03-08T08:06:48.689Z,969.38
2018-03-08T08:07:48.610Z,969.42
2018-03-08T08:08:48.527Z,969.40
2018-03-08T08:09:48.442Z,969.49
2018-03-08T08:10:48.364Z,969.44
2018-03-08T08:11:48.277Z,969.40
2018-03-08T08:12:48.194Z,969.40
2018-03-08T08:13:48.111Z,969.45
2018-03-08T08:14:48.028Z,969.39
2018-03-08T08:15:47.943Z,969.38
2018-03-08T08:16:47.863Z,969.40
2018-03-08T08:17:47.778Z,969.39
2018-03-08T08:18:47.698Z,969.42
2018-03-08T08:19:47.614Z,969.47
2018-03-08T08:20:47.528Z,969.49
2018-03-08T08:21:47.446Z,969.49
2018-03-08T08:22:47.363Z,969.48
2018-03-08T08:23:47.280Z,969.46
2018-03-08T08:26:29.805Z,969.50
2018-03-08T08:27:29.671Z,969.44
2018-03-08T08:29:33.467Z,969.46
2018-03-08T08:30:33.383Z,969.45
2018-03-08T08:32:37.219Z,969.43
2018-03-08T08:33:37.087Z,969.44
2018-03-08T08:35:40.938Z,969.42
2018-03-08T08:36:40.809Z,969.38
2018-03-08T08:38:44.601Z,969.40
2018-03-08T08:39:44.517Z,969.40
2018-03-08T08:41:48.364Z,969.41
2018-03-08T08:42:48.230Z,969.41
2018-03-08T08:44:40.970Z,969.39
2018-03-08T08:45:40.882Z,969.36
2018-03-08T08:48:05.745Z,969.43
2018-03-08T08:49:48.530Z,969.42
2018-03-08T08:50:48.397Z,969.46
2018-03-08T08:52:52.243Z,969.49
2018-03-08T08:53:52.107Z,969.56
2018-03-08T08:55:55.984Z,969.64
2018-03-08T08:56:55.849Z,969.55
2018-03-08T08:58:59.643Z,969.53
2018-03-08T08:59:59.555Z,969.54
2018-03-08T09:02:03.398Z,969.55
2018-03-08T09:03:03.270Z,969.58
2018-03-08T09:04:56.060Z,969.59
2018-03-08T09:05:55.924Z,969.60
2018-03-08T09:07:59.769Z,969.59
2018-03-08T09:08:59.640Z,969.52
2018-03-08T09:11:03.492Z,969.50
2018-03-08T09:12:03.362Z,969.50
2018-03-08T09:13:03.277Z,969.46
2018-03-08T09:14:03.197Z,969.51
2018-03-08T09:15:03.115Z,969.48
2018-03-08T09:16:03.034Z,969.50
2018-03-08T09:17:02.951Z,969.51
2018-03-08T09:18:02.869Z,969.52
2018-03-08T09:19:02.785Z,969.51
2018-03-08T09:20:02.706Z,969.53
2018-03-08T09:21:02.654Z,969.51
2018-03-08T09:22:02.540Z,969.49
2018-03-08T09:23:02.459Z,969.48
2018-03-08T09:24:02.375Z,969.48
2018-03-08T09:25:02.295Z,969.47
2018-03-08T09:26:02.213Z,969.52
2018-03-08T09:27:02.130Z,969.54
2018-03-08T09:28:02.049Z,969.56
2018-03-08T09:29:01.966Z,969.60
2018-03-08T09:30:01.885Z,969.63
2018-03-08T09:31:01.810Z,969.67
2018-03-08T09:32:01.724Z,969.66
2018-03-08T09:33:01.642Z,969.67
2018-03-08T09:34:01.558Z,969.72
2018-03-08T09:35:01.478Z,969.68
2018-03-08T09:36:01.397Z,969.68
2018-03-08T09:37:01.316Z,969.63
2018-03-08T09:38:01.235Z,969.69
2018-03-08T09:39:01.155Z,969.70
2018-03-08T09:40:01.072Z,969.73
2018-03-08T09:41:00.989Z,969.72
2018-03-08T09:42:00.909Z,969.74
2018-03-08T09:43:00.829Z,969.76
2018-03-08T09:44:00.750Z,969.76
2018-03-08T09:45:00.669Z,969.79
2018-03-08T09:46:00.584Z,969.74
2018-03-08T09:47:00.504Z,969.82
2018-03-08T09:48:00.422Z,969.77
2018-03-08T09:49:00.342Z,969.78
2018-03-08T09:50:00.264Z,969.79
2018-03-08T09:51:00.180Z,969.79
2018-03-08T09:52:00.102Z,969.88
2018-03-08T09:53:00.021Z,969.80
2018-03-08T09:53:59.936Z,969.82
2018-03-08T09:54:59.857Z,969.75
2018-03-08T09:55:59.775Z,969.83
2018-03-08T09:56:59.695Z,969.83
2018-03-08T09:57:59.622Z,969.84
2018-03-08T09:58:59.553Z,969.82
2018-03-08T09:59:59.455Z,969.80
2018-03-08T10:00:59.373Z,969.77
2018-03-08T10:01:59.290Z,969.83
2018-03-08T10:02:59.210Z,969.85
2018-03-08T10:03:59.133Z,969.86
2018-03-08T10:04:59.050Z,969.86
2018-03-08T10:05:58.971Z,969.92
2018-03-08T10:06:58.891Z,969.97
2018-03-08T10:07:58.809Z,969.95
2018-03-08T10:08:58.728Z,969.93
2018-03-08T10:09:58.648Z,969.96
2018-03-08T10:10:58.571Z,969.89
2018-03-08T10:11:58.489Z,969.89
2018-03-08T10:12:58.408Z,969.87
2018-03-08T10:13:58.334Z,969.88
2018-03-08T10:14:58.248Z,969.87
2018-03-08T10:15:58.171Z,969.88
2018-03-08T10:16:58.086Z,969.81
2018-03-08T10:17:58.008Z,969.86
2018-03-08T10:18:57.927Z,969.82
2018-03-08T10:19:57.849Z,969.81
2018-03-08T10:20:57.768Z,969.79
2018-03-08T10:21:57.687Z,969.83
2018-03-08T10:22:57.607Z,969.85
2018-03-08T10:23:57.528Z,969.84
2018-03-08T10:24:57.447Z,969.85
2018-03-08T10:25:57.370Z,969.85
2018-03-08T10:26:57.289Z,969.85
2018-03-08T10:27:57.209Z,969.90
2018-03-08T10:28:57.163Z,969.88
2018-03-08T10:29:57.050Z,969.83
2018-03-08T10:30:56.971Z,969.84
2018-03-08T10:31:56.891Z,969.85
2018-03-08T10:32:56.812Z,969.81
2018-03-08T10:33:56.743Z,969.79
2018-03-08T10:34:56.653Z,969.81
2018-03-08T10:35:56.576Z,969.79
2018-03-08T10:36:56.493Z,969.80
2018-03-08T10:37:56.418Z,969.72
2018-03-08T10:38:56.339Z,969.73
2018-03-08T10:39:56.258Z,969.74
2018-03-08T10:40:56.190Z,969.74
2018-03-08T10:41:56.100Z,969.76
2018-03-08T10:42:56.021Z,969.81
2018-03-08T10:43:55.943Z,969.83
2018-03-08T10:44:55.863Z,969.82
2018-03-08T10:45:55.785Z,969.80
2018-03-08T10:46:55.706Z,969.84
2018-03-08T10:47:55.630Z,969.78
2018-03-08T10:49:55.467Z,969.80
2018-03-08T10:50:55.390Z,969.83
2018-03-08T10:51:55.314Z,969.80
2018-03-08T10:52:55.234Z,969.80
2018-03-08T10:53:55.151Z,969.80
2018-03-08T10:54:55.075Z,969.83
2018-03-08T10:55:54.995Z,969.82
2018-03-08T10:56:54.915Z,969.78
2018-03-08T10:57:54.840Z,969.78
2018-03-08T10:58:54.758Z,969.81
2018-03-08T10:59:54.678Z,969.83
2018-03-08T11:00:54.602Z,969.86
2018-03-08T11:01:54.521Z,969.89
2018-03-08T11:02:54.440Z,969.81
2018-03-08T11:03:54.363Z,969.76
2018-03-08T11:04:54.284Z,969.78
2018-03-08T11:05:54.204Z,969.79
2018-03-08T11:06:54.126Z,969.78
2018-03-08T11:07:54.053Z,969.77
2018-03-08T11:08:53.968Z,969.74
2018-03-08T11:09:53.890Z,969.74
2018-03-08T11:10:53.811Z,969.78
2018-03-08T11:11:53.733Z,969.74
2018-03-08T11:12:53.651Z,969.76
2018-03-08T11:13:53.573Z,969.75
2018-03-08T11:14:53.495Z,969.69
2018-03-08T11:15:53.416Z,969.72
2018-03-08T11:16:53.343Z,969.71
2018-03-08T11:17:53.260Z,969.76
2018-03-08T11:18:53.182Z,969.66
2018-03-08T11:19:53.106Z,969.67
2018-03-08T11:20:53.023Z,969.67
2018-03-08T11:21:52.949Z,969.70
2018-03-08T11:22:52.868Z,969.74
2018-03-08T11:23:52.789Z,969.73
2018-03-08T11:24:52.712Z,969.64
2018-03-08T11:25:52.629Z,969.64
2018-03-08T11:26:52.552Z,969.70
2018-03-08T11:27:52.481Z,969.75
2018-03-08T11:28:52.404Z,969.74
2018-03-08T11:29:52.318Z,969.76
2018-03-08T11:30:52.244Z,969.71
2018-03-08T11:31:52.166Z,969.74
2018-03-08T11:32:52.089Z,969.77
2018-03-08T11:33:52.018Z,969.78
2018-03-08T11:34:51.949Z,969.76
2018-03-08T11:35:51.867Z,969.76
2018-03-08T11:36:51.803Z,969.76
2018-03-08T11:37:51.721Z,969.59
2018-03-08T11:38:51.651Z,969.56
2018-03-08T11:39:51.580Z,969.75
2018-03-08T11:40:51.514Z,969.52
2018-03-08T11:41:51.437Z,969.54
2018-03-08T11:42:51.369Z,969.46
2018-03-08T11:43:51.316Z,969.46
2018-03-08T11:44:51.226Z,969.46
2018-03-08T11:45:51.160Z,969.53
2018-03-08T11:46:51.117Z,969.65
2018-03-08T11:47:51.017Z,969.51
2018-03-08T11:48:50.940Z,969.48
2018-03-08T11:49:50.918Z,969.51
2018-03-08T11:50:50.800Z,969.48
2018-03-08T11:51:50.729Z,969.42
2018-03-08T11:52:50.654Z,969.36
2018-03-08T11:53:50.584Z,969.38
2018-03-08T11:54:50.548Z,969.40
2018-03-08T11:55:50.441Z,969.38
2018-03-08T11:56:50.369Z,969.40
2018-03-08T11:57:50.296Z,969.35
2018-03-08T11:58:50.223Z,969.48
2018-03-08T11:59:50.151Z,969.50
2018-03-08T12:00:50.078Z,969.42
2018-03-08T12:01:50.004Z,969.29
2018-03-08T12:02:49.932Z,969.25
2018-03-08T12:03:49.860Z,969.23
2018-03-08T12:04:49.786Z,969.22
2018-03-08T12:05:49.720Z,969.21
2018-03-08T12:06:49.641Z,969.18
2018-03-08T12:07:49.570Z,969.14
2018-03-08T12:08:49.496Z,969.24
2018-03-08T12:09:49.426Z,969.18
2018-03-08T12:10:49.350Z,969.14
2018-03-08T12:11:49.278Z,969.14
2018-03-08T12:12:49.204Z,969.32
2018-03-08T12:13:49.131Z,969.24
2018-03-08T12:14:49.057Z,969.30
2018-03-08T12:15:48.984Z,969.33
2018-03-08T12:16:48.941Z,969.03
2018-03-08T12:17:48.885Z,969.06
2018-03-08T12:18:48.766Z,969.07
2018-03-08T12:19:48.693Z,969.04
2018-03-08T12:20:48.621Z,969.05
2018-03-08T12:21:48.554Z,969.02
2018-03-08T12:22:48.484Z,969.00
2018-03-08T12:23:48.406Z,968.99
2018-03-08T12:24:48.331Z,969.04
2018-03-08T12:25:48.260Z,969.20
2018-03-08T12:26:48.186Z,969.24
2018-03-08T12:27:48.114Z,969.13
2018-03-08T12:28:48.045Z,969.03
2018-03-08T12:29:47.971Z,969.03
2018-03-08T12:30:47.899Z,969.03
2018-03-08T12:31:47.827Z,968.95
2018-03-08T12:32:47.757Z,968.91
2018-03-08T12:33:47.683Z,968.89
2018-03-08T12:34:47.613Z,968.89
2018-03-08T12:35:47.541Z,968.89
2018-03-08T12:36:47.473Z,968.93
2018-03-08T12:37:47.394Z,968.90
2018-03-08T12:38:47.330Z,968.95
2018-03-08T12:39:47.248Z,968.90
2018-03-08T12:40:47.175Z,968.91
2018-03-08T12:41:47.104Z,968.89
2018-03-08T12:42:47.026Z,968.91
2018-03-08T12:43:46.954Z,969.10
2018-03-08T12:44:46.879Z,968.99
2018-03-08T12:45:46.805Z,969.07
2018-03-08T12:46:46.737Z,969.06
2018-03-08T12:47:46.660Z,969.01